createdAt,value
2018-05-05T00:01:01.982Z,0.00
2018-05-05T00:02:01.954Z,0.00
2018-05-05T00:03:54.678Z,0.00
2018-05-05T00:04:54.528Z,0.00
2018-05-05T00:06:47.316Z,0.00
2018-05-05T00:07:47.268Z,0.00
2018-05-05T00:09:40.050Z,0.00
2018-05-05T00:10:39.941Z,0.00
2018-05-05T00:12:32.674Z,0.00
2018-05-05T00:13:32.580Z,0.00
2018-05-05T00:15:25.346Z,0.00
2018-05-05T00:16:25.218Z,0.00
2018-05-05T00:18:18.131Z,0.00
2018-05-05T00:19:17.993Z,0.00
2018-05-05T00:21:11.226Z,0.00
2018-05-05T00:22:11.142Z,0.00
2018-05-05T00:24:03.893Z,0.00
2018-05-05T00:25:03.793Z,0.00
2018-05-05T00:26:56.518Z,0.00
2018-05-05T00:27:56.423Z,0.00
2018-05-05T00:29:49.180Z,0.00
2018-05-05T00:30:49.093Z,0.00
2018-05-05T00:32:42.926Z,0.00
2018-05-05T00:33:42.236Z,0.00
2018-05-05T00:35:34.995Z,0.00
2018-05-05T00:36:34.879Z,0.00
2018-05-05T00:38:28.651Z,0.00
2018-05-05T00:39:28.548Z,0.00
2018-05-05T00:41:21.325Z,0.00
2018-05-05T00:42:21.193Z,0.00
2018-05-05T00:44:14.964Z,0.00
2018-05-05T00:45:14.869Z,0.00
2018-05-05T00:47:07.647Z,0.00
2018-05-05T00:48:07.521Z,0.00
2018-05-05T00:50:00.289Z,0.00
2018-05-05T00:51:00.177Z,0.00
2018-05-05T00:52:52.900Z,0.00
2018-05-05T00:53:52.832Z,0.00
2018-05-05T00:55:45.597Z,0.00
2018-05-05T00:56:45.455Z,0.00
2018-05-05T00:58:38.212Z,0.00
2018-05-05T00:59:38.104Z,0.00
2018-05-05T01:01:30.969Z,0.00
2018-05-05T01:02:30.861Z,0.00
2018-05-05T01:04:23.606Z,0.00
2018-05-05T01:05:23.508Z,0.00
2018-05-05T01:07:16.271Z,0.00
2018-05-05T01:08:16.157Z,0.00
2018-05-05T01:10:08.982Z,0.00
2018-05-05T01:11:08.914Z,0.00
2018-05-05T01:13:01.652Z,0.00
2018-05-05T01:14:01.582Z,0.00
2018-05-05T01:15:54.309Z,0.00
2018-05-05T01:16:54.192Z,0.00
2018-05-05T01:18:47.071Z,0.00
2018-05-05T01:19:46.988Z,0.00
2018-05-05T01:21:39.690Z,0.00
2018-05-05T01:22:39.594Z,0.00
2018-05-05T01:24:32.356Z,0.00
2018-05-05T01:25:32.258Z,0.00
2018-05-05T01:27:25.008Z,0.00
2018-05-05T01:28:24.877Z,0.00
2018-05-05T01:30:17.780Z,0.00
2018-05-05T01:31:17.640Z,0.00
2018-05-05T01:33:10.895Z,0.00
2018-05-05T01:34:10.788Z,0.00
2018-05-05T01:36:03.538Z,0.00
2018-05-05T01:37:03.439Z,0.00
2018-05-05T01:38:56.216Z,0.00
2018-05-05T01:39:56.077Z,0.00
2018-05-05T01:41:48.860Z,0.00
2018-05-05T01:42:48.756Z,0.00
2018-05-05T01:44:41.508Z,0.00
2018-05-05T01:45:41.376Z,0.00
2018-05-05T01:47:34.168Z,0.00
2018-05-05T01:48:34.053Z,0.00
2018-05-05T01:50:26.793Z,0.00
2018-05-05T01:51:26.669Z,0.00
2018-05-05T01:53:19.561Z,0.00
2018-05-05T01:54:19.319Z,0.00
2018-05-05T01:56:12.090Z,0.00
2018-05-05T01:57:11.973Z,0.00
2018-05-05T01:59:04.751Z,0.00
2018-05-05T02:00:04.618Z,0.00
2018-05-05T02:01:57.356Z,0.00
2018-05-05T02:02:57.254Z,0.00
2018-05-05T02:04:50.052Z,0.00
2018-05-05T02:05:49.915Z,0.00
2018-05-05T02:07:42.661Z,0.00
2018-05-05T02:08:42.587Z,0.00
2018-05-05T02:10:35.326Z,0.00
2018-05-05T02:11:35.229Z,0.00
2018-05-05T02:13:27.985Z,0.00
2018-05-05T02:14:27.855Z,0.00
2018-05-05T02:16:20.621Z,0.00
2018-05-05T02:17:20.509Z,0.00
2018-05-05T02:19:13.246Z,0.00
2018-05-05T02:20:13.147Z,0.00
2018-05-05T02:22:06.922Z,0.00
2018-05-05T02:23:06.837Z,0.00
2018-05-05T02:24:59.586Z,0.00
2018-05-05T02:25:59.461Z,0.00
2018-05-05T02:27:52.259Z,0.00
2018-05-05T02:28:52.115Z,0.00
2018-05-05T02:30:44.852Z,0.00
2018-05-05T02:31:44.794Z,0.00
2018-05-05T02:33:37.619Z,0.00
2018-05-05T02:34:37.518Z,0.00
2018-05-05T02:36:30.291Z,0.00
2018-05-05T02:37:30.148Z,0.00
2018-05-05T02:39:22.895Z,0.00
2018-05-05T02:40:22.809Z,0.00
2018-05-05T02:42:15.688Z,0.00
2018-05-05T02:43:15.570Z,0.00
2018-05-05T02:45:08.319Z,0.00
2018-05-05T02:46:08.192Z,0.00
2018-05-05T02:48:00.979Z,0.00
2018-05-05T02:49:00.847Z,0.00
2018-05-05T02:50:53.686Z,0.00
2018-05-05T02:51:53.497Z,0.00
2018-05-05T02:53:46.242Z,0.00
2018-05-05T02:54:46.140Z,0.00
2018-05-05T02:56:38.888Z,0.00
2018-05-05T02:57:38.799Z,0.00
2018-05-05T02:59:31.566Z,0.00
2018-05-05T03:00:31.442Z,0.00
2018-05-05T03:02:24.183Z,0.00
2018-05-05T03:03:24.078Z,0.00
2018-05-05T03:05:16.860Z,0.00
2018-05-05T03:06:16.728Z,0.00
2018-05-05T03:08:10.052Z,0.00
2018-05-05T03:09:09.881Z,0.00
2018-05-05T03:11:02.652Z,0.00
2018-05-05T03:12:02.533Z,0.00
2018-05-05T03:13:55.335Z,0.00
2018-05-05T03:14:55.181Z,0.00
2018-05-05T03:16:47.918Z,0.00
2018-05-05T03:17:47.866Z,0.00
2018-05-05T03:19:40.603Z,0.00
2018-05-05T03:20:40.505Z,0.00
2018-05-05T03:22:33.236Z,0.00
2018-05-05T03:23:33.120Z,0.00
2018-05-05T03:25:25.946Z,0.00
2018-05-05T03:26:25.781Z,0.00
2018-05-05T03:28:18.521Z,0.00
2018-05-05T03:29:18.424Z,0.00
2018-05-05T03:31:11.295Z,0.00
2018-05-05T03:32:11.066Z,0.00
2018-05-05T03:34:03.845Z,0.00
2018-05-05T03:35:03.709Z,0.00
2018-05-05T03:36:56.487Z,0.00
2018-05-05T03:37:56.354Z,0.00
2018-05-05T03:39:49.145Z,0.00
2018-05-05T03:40:49.017Z,0.00
2018-05-05T03:42:41.754Z,0.00
2018-05-05T03:43:41.652Z,0.00
2018-05-05T03:45:34.437Z,5.63
2018-05-05T03:46:34.300Z,5.63
2018-05-05T03:48:27.049Z,5.63
2018-05-05T03:49:26.979Z,5.63
2018-05-05T03:51:19.705Z,5.63
2018-05-05T03:52:19.591Z,5.63
2018-05-05T03:54:12.935Z,5.63
2018-05-05T03:55:12.334Z,11.25
2018-05-05T03:57:05.108Z,11.25
2018-05-05T03:58:04.991Z,11.25
2018-05-05T03:59:57.839Z,11.25
2018-05-05T04:00:57.633Z,11.25
2018-05-05T04:02:50.404Z,11.25
2018-05-05T04:03:50.275Z,16.88
2018-05-05T04:05:43.703Z,16.88
2018-05-05T04:06:43.440Z,16.88
2018-05-05T04:08:36.193Z,16.88
2018-05-05T04:09:36.089Z,16.88
2018-05-05T04:11:29.353Z,22.50
2018-05-05T04:12:29.265Z,22.50
2018-05-05T04:14:22.004Z,22.50
2018-05-05T04:15:21.892Z,22.50
2018-05-05T04:17:14.662Z,22.50
2018-05-05T04:18:14.563Z,22.50
2018-05-05T04:20:07.377Z,28.13
2018-05-05T04:21:07.288Z,28.13
2018-05-05T04:23:00.056Z,28.13
2018-05-05T04:23:59.952Z,28.13
2018-05-05T04:25:52.682Z,28.13
2018-05-05T04:26:52.613Z,28.13
2018-05-05T04:28:45.364Z,33.75
2018-05-05T04:29:45.238Z,33.75
2018-05-05T04:31:38.225Z,33.75
2018-05-05T04:32:38.101Z,33.75
2018-05-05T04:34:31.340Z,33.75
2018-05-05T04:35:31.277Z,33.75
2018-05-05T04:37:24.010Z,33.75
2018-05-05T04:38:23.891Z,39.38
2018-05-05T04:40:17.310Z,39.38
2018-05-05T04:41:16.539Z,39.38
2018-05-05T04:43:09.316Z,39.38
2018-05-05T04:44:09.183Z,39.38
2018-05-05T04:46:01.992Z,39.38
2018-05-05T04:47:01.849Z,39.38
2018-05-05T04:48:54.607Z,45.00
2018-05-05T04:49:54.485Z,45.00
2018-05-05T04:51:47.330Z,45.00
2018-05-05T04:52:47.187Z,45.00
2018-05-05T04:54:39.986Z,45.00
2018-05-05T04:55:39.771Z,45.00
2018-05-05T04:57:32.533Z,45.00
2018-05-05T04:58:32.427Z,45.00
2018-05-05T05:00:25.209Z,50.63
2018-05-05T05:01:25.277Z,50.63
2018-05-05T05:03:18.425Z,50.63
2018-05-05T05:04:17.713Z,50.63
2018-05-05T05:06:11.020Z,50.63
2018-05-05T05:07:10.885Z,50.63
2018-05-05T05:09:03.631Z,50.63
2018-05-05T05:10:03.525Z,50.63
2018-05-05T05:11:56.268Z,50.63
2018-05-05T05:12:56.184Z,56.25
2018-05-05T05:14:48.925Z,56.25
2018-05-05T05:15:48.813Z,56.25
2018-05-05T05:17:41.565Z,56.25
2018-05-05T05:18:41.475Z,56.25
2018-05-05T05:20:35.247Z,61.88
2018-05-05T05:21:35.133Z,61.88
2018-05-05T05:23:27.926Z,61.88
2018-05-05T05:24:27.779Z,61.88
2018-05-05T05:26:20.559Z,61.88
2018-05-05T05:27:20.426Z,67.50
2018-05-05T05:29:13.175Z,67.50
2018-05-05T05:30:13.089Z,73.13
2018-05-05T05:32:07.391Z,78.75
2018-05-05T05:33:07.296Z,84.38
2018-05-05T05:35:00.036Z,90.00
2018-05-05T05:35:59.907Z,90.00
2018-05-05T05:37:52.661Z,90.00
2018-05-05T05:38:52.552Z,90.00
2018-05-05T05:40:45.342Z,90.00
2018-05-05T05:41:45.202Z,95.63
2018-05-05T05:43:37.946Z,95.63
2018-05-05T05:44:37.847Z,95.63
2018-05-05T05:46:30.679Z,95.63
2018-05-05T05:47:30.498Z,95.63
2018-05-05T05:49:23.259Z,95.63
2018-05-05T05:50:23.143Z,95.63
2018-05-05T05:52:15.904Z,95.63
2018-05-05T05:53:15.790Z,101.25
2018-05-05T05:55:08.543Z,101.25
2018-05-05T05:56:08.447Z,101.25
2018-05-05T05:58:01.226Z,101.25
2018-05-05T05:59:01.089Z,101.25
2018-05-05T06:00:54.345Z,101.25
2018-05-05T06:01:54.253Z,101.25
2018-05-05T06:03:47.011Z,101.25
2018-05-05T06:04:46.886Z,101.25
2018-05-05T06:06:39.654Z,101.25
2018-05-05T06:07:39.540Z,106.88
2018-05-05T06:09:32.417Z,106.88
2018-05-05T06:10:32.189Z,106.88
2018-05-05T06:12:25.041Z,106.88
2018-05-05T06:13:24.858Z,106.88
2018-05-05T06:15:17.599Z,106.88
2018-05-05T06:16:17.477Z,106.88
2018-05-05T06:18:10.303Z,106.88
2018-05-05T06:19:10.142Z,106.88
2018-05-05T06:21:02.885Z,112.50
2018-05-05T06:22:02.781Z,112.50
2018-05-05T06:23:55.628Z,112.50
2018-05-05T06:24:55.554Z,112.50
2018-05-05T06:26:48.299Z,106.88
2018-05-05T06:27:48.172Z,106.88
2018-05-05T06:29:40.941Z,106.88
2018-05-05T06:30:40.816Z,106.88
2018-05-05T06:32:33.677Z,112.50
2018-05-05T06:33:33.712Z,112.50
2018-05-05T06:35:26.329Z,112.50
2018-05-05T06:36:26.233Z,112.50
2018-05-05T06:38:18.962Z,112.50
2018-05-05T06:39:18.864Z,112.50
2018-05-05T06:41:11.626Z,112.50
2018-05-05T06:42:11.506Z,112.50
2018-05-05T06:44:04.275Z,118.13
2018-05-05T06:45:04.167Z,123.75
2018-05-05T06:46:56.927Z,118.13
2018-05-05T06:47:56.827Z,118.13
2018-05-05T06:49:49.577Z,118.13
2018-05-05T06:50:49.481Z,118.13
2018-05-05T06:52:42.237Z,118.13
2018-05-05T06:53:42.104Z,123.75
2018-05-05T06:55:34.860Z,123.75
2018-05-05T06:56:34.749Z,123.75
2018-05-05T06:58:27.521Z,123.75
2018-05-05T06:59:27.393Z,129.38
2018-05-05T07:01:20.142Z,123.75
2018-05-05T07:02:20.049Z,123.75
2018-05-05T07:04:12.893Z,129.38
2018-05-05T07:05:12.789Z,129.38
2018-05-05T07:07:05.566Z,129.38
2018-05-05T07:08:05.440Z,129.38
2018-05-05T07:09:58.193Z,129.38
2018-05-05T07:10:58.084Z,129.38
2018-05-05T07:12:50.951Z,135.00
2018-05-05T07:13:50.841Z,135.00
2018-05-05T07:15:43.800Z,135.00
2018-05-05T07:16:43.482Z,135.00
2018-05-05T07:18:36.259Z,135.00
2018-05-05T07:19:36.133Z,140.63
2018-05-05T07:21:28.992Z,140.63
2018-05-05T07:22:28.875Z,140.63
2018-05-05T07:24:21.759Z,140.63
2018-05-05T07:25:21.621Z,140.63
2018-05-05T07:27:14.489Z,146.25
2018-05-05T07:28:14.381Z,151.88
2018-05-05T07:30:07.162Z,146.25
2018-05-05T07:31:07.029Z,146.25
2018-05-05T07:32:59.814Z,146.25
2018-05-05T07:33:59.746Z,146.25
2018-05-05T07:35:53.046Z,151.88
2018-05-05T07:36:52.973Z,151.88
2018-05-05T07:38:45.789Z,151.88
2018-05-05T07:39:45.692Z,151.88
2018-05-05T07:41:38.572Z,151.88
2018-05-05T07:42:38.442Z,151.88
2018-05-05T07:44:31.226Z,157.50
2018-05-05T07:45:31.103Z,157.50
2018-05-05T07:47:23.837Z,157.50
2018-05-05T07:48:23.794Z,157.50
2018-05-05T07:50:17.012Z,151.88
2018-05-05T07:51:16.884Z,157.50
2018-05-05T07:53:09.682Z,157.50
2018-05-05T07:54:09.557Z,157.50
2018-05-05T07:56:02.404Z,163.13
2018-05-05T07:57:02.342Z,163.13
2018-05-05T07:58:55.047Z,168.75
2018-05-05T07:59:54.931Z,168.75
2018-05-05T08:01:48.718Z,168.75
2018-05-05T08:02:47.582Z,174.38
2018-05-05T08:04:40.366Z,174.38
2018-05-05T08:05:40.229Z,174.38
2018-05-05T08:07:33.019Z,180.00
2018-05-05T08:08:32.879Z,180.00
2018-05-05T08:10:25.657Z,180.00
2018-05-05T08:11:25.623Z,185.63
2018-05-05T08:13:18.294Z,185.63
2018-05-05T08:14:18.340Z,185.63
2018-05-05T08:16:11.052Z,185.63
2018-05-05T08:17:10.918Z,191.25
2018-05-05T08:19:04.302Z,191.25
2018-05-05T08:20:04.104Z,191.25
2018-05-05T08:21:56.846Z,191.25
2018-05-05T08:22:56.723Z,191.25
2018-05-05T08:24:49.628Z,196.88
2018-05-05T08:25:49.541Z,196.88
2018-05-05T08:27:42.349Z,196.88
2018-05-05T08:28:42.239Z,196.88
2018-05-05T08:30:35.505Z,196.88
2018-05-05T08:31:35.390Z,196.88
2018-05-05T08:33:30.846Z,196.88
2018-05-05T08:34:28.476Z,196.88
2018-05-05T08:36:20.988Z,196.88
2018-05-05T08:37:20.910Z,196.88
2018-05-05T08:39:13.647Z,196.88
2018-05-05T08:40:13.549Z,196.88
2018-05-05T08:42:06.271Z,196.88
2018-05-05T08:43:06.199Z,202.50
2018-05-05T08:44:58.937Z,202.50
2018-05-05T08:45:58.842Z,202.50
2018-05-05T08:47:51.581Z,202.50
2018-05-05T08:48:51.478Z,202.50
2018-05-05T08:50:44.239Z,202.50
2018-05-05T08:51:44.121Z,202.50
2018-05-05T08:53:36.974Z,202.50
2018-05-05T08:54:36.863Z,202.50
2018-05-05T08:56:29.712Z,208.13
2018-05-05T08:57:29.644Z,208.13
2018-05-05T08:59:22.379Z,202.50
2018-05-05T09:00:22.268Z,202.50
2018-05-05T09:02:15.005Z,208.13
2018-05-05T09:03:14.917Z,208.13
2018-05-05T09:05:07.775Z,208.13
2018-05-05T09:06:07.667Z,208.13
2018-05-05T09:08:00.420Z,208.13
2018-05-05T09:09:00.353Z,208.13
2018-05-05T09:10:53.090Z,208.13
2018-05-05T09:11:52.967Z,213.75
2018-05-05T09:13:45.707Z,213.75
2018-05-05T09:14:45.610Z,208.13
2018-05-05T09:16:38.466Z,191.25
2018-05-05T09:17:38.367Z,174.38
2018-05-05T09:19:31.193Z,163.13
2018-05-05T09:20:31.100Z,168.75
2018-05-05T09:22:25.187Z,174.38
2018-05-05T09:23:24.458Z,174.38
2018-05-05T09:25:17.019Z,196.88
2018-05-05T09:26:16.910Z,196.88
2018-05-05T09:28:09.787Z,180.00
2018-05-05T09:29:09.684Z,180.00
2018-05-05T09:31:02.515Z,185.63
2018-05-05T09:32:02.425Z,185.63
2018-05-05T09:33:55.228Z,185.63
2018-05-05T09:34:55.061Z,185.63
2018-05-05T09:36:48.018Z,191.25
2018-05-05T09:37:47.901Z,185.63
2018-05-05T09:39:40.760Z,185.63
2018-05-05T09:40:40.664Z,191.25
2018-05-05T09:42:33.549Z,191.25
2018-05-05T09:43:33.448Z,185.63
2018-05-05T09:45:26.296Z,191.25
2018-05-05T09:46:26.164Z,185.63
2018-05-05T09:48:19.542Z,191.25
2018-05-05T09:49:18.943Z,191.25
2018-05-05T09:51:11.769Z,191.25
2018-05-05T09:52:11.678Z,191.25
2018-05-05T09:54:04.416Z,202.50
2018-05-05T09:55:04.312Z,202.50
2018-05-05T09:56:57.184Z,191.25
2018-05-05T09:57:57.054Z,196.88
2018-05-05T09:59:49.930Z,180.00
2018-05-05T10:00:49.853Z,202.50
2018-05-05T10:02:42.547Z,202.50
2018-05-05T10:03:42.481Z,202.50
2018-05-05T10:05:35.500Z,202.50
2018-05-05T10:06:35.209Z,202.50
2018-05-05T10:08:28.049Z,202.50
2018-05-05T10:09:27.947Z,202.50
2018-05-05T10:11:21.313Z,202.50
2018-05-05T10:12:21.290Z,202.50
2018-05-05T10:14:14.171Z,202.50
2018-05-05T10:15:14.066Z,202.50
2018-05-05T10:17:06.907Z,202.50
2018-05-05T10:18:06.815Z,202.50
2018-05-05T10:19:59.695Z,202.50
2018-05-05T10:20:59.470Z,208.13
2018-05-05T10:22:52.302Z,208.13
2018-05-05T10:23:52.284Z,208.13
2018-05-05T10:25:45.059Z,208.13
2018-05-05T10:26:45.003Z,208.13
2018-05-05T10:28:37.799Z,208.13
2018-05-05T10:29:37.769Z,208.13
2018-05-05T10:31:30.607Z,208.13
2018-05-05T10:32:30.457Z,208.13
2018-05-05T10:34:23.300Z,208.13
2018-05-05T10:35:23.213Z,208.13
2018-05-05T10:37:16.080Z,208.13
2018-05-05T10:38:15.991Z,202.50
2018-05-05T10:40:08.801Z,196.88
2018-05-05T10:41:08.782Z,196.88
2018-05-05T10:43:01.566Z,202.50
2018-05-05T10:44:01.460Z,202.50
2018-05-05T10:45:54.302Z,196.88
2018-05-05T10:46:54.211Z,202.50
2018-05-05T10:48:47.065Z,202.50
2018-05-05T10:49:46.959Z,208.13
2018-05-05T10:51:39.839Z,208.13
2018-05-05T10:52:39.707Z,208.13
2018-05-05T10:54:32.555Z,208.13
2018-05-05T10:55:32.521Z,208.13
2018-05-05T10:57:25.320Z,208.13
2018-05-05T10:58:25.221Z,208.13
2018-05-05T11:00:18.064Z,208.13
2018-05-05T11:01:17.967Z,208.13
2018-05-05T11:03:10.808Z,202.50
2018-05-05T11:04:10.721Z,202.50
2018-05-05T11:06:04.839Z,202.50
2018-05-05T11:07:03.453Z,202.50
2018-05-05T11:08:56.361Z,202.50
2018-05-05T11:09:56.228Z,202.50
2018-05-05T11:11:49.065Z,196.88
2018-05-05T11:12:48.959Z,196.88
2018-05-05T11:14:42.222Z,196.88
2018-05-05T11:15:42.121Z,196.88
2018-05-05T11:17:34.989Z,191.25
2018-05-05T11:18:34.879Z,191.25
2018-05-05T11:20:27.729Z,191.25
2018-05-05T11:21:27.617Z,191.25
2018-05-05T11:23:20.458Z,191.25
2018-05-05T11:24:20.382Z,191.25
2018-05-05T11:26:13.637Z,191.25
2018-05-05T11:27:13.535Z,191.25
2018-05-05T11:29:06.358Z,185.63
2018-05-05T11:30:06.272Z,185.63
2018-05-05T11:31:59.135Z,185.63
2018-05-05T11:32:59.060Z,185.63
2018-05-05T11:34:51.866Z,185.63
2018-05-05T11:35:51.786Z,185.63
2018-05-05T11:37:44.651Z,185.63
2018-05-05T11:38:44.554Z,185.63
2018-05-05T11:40:37.399Z,180.00
2018-05-05T11:41:37.274Z,174.38
2018-05-05T11:43:30.165Z,168.75
2018-05-05T11:44:30.033Z,174.38
2018-05-05T11:46:22.879Z,163.13
2018-05-05T11:47:22.797Z,163.13
2018-05-05T11:49:15.699Z,157.50
2018-05-05T11:50:15.541Z,163.13
2018-05-05T11:52:08.976Z,163.13
2018-05-05T11:53:08.291Z,163.13
2018-05-05T11:55:01.177Z,163.13
2018-05-05T11:56:01.020Z,140.63
2018-05-05T11:57:53.862Z,151.88
2018-05-05T11:58:53.787Z,151.88
2018-05-05T12:00:46.648Z,163.13
2018-05-05T12:01:46.597Z,163.13
2018-05-05T12:03:39.360Z,168.75
2018-05-05T12:04:39.268Z,168.75
2018-05-05T12:06:32.129Z,168.75
2018-05-05T12:07:32.017Z,168.75
2018-05-05T12:09:24.863Z,163.13
2018-05-05T12:10:24.794Z,168.75
2018-05-05T12:12:17.642Z,157.50
2018-05-05T12:13:17.551Z,163.13
2018-05-05T12:15:10.380Z,168.75
2018-05-05T12:16:10.270Z,168.75
2018-05-05T12:18:03.155Z,168.75
2018-05-05T12:19:03.014Z,168.75
2018-05-05T12:20:55.854Z,168.75
2018-05-05T12:21:55.774Z,168.75
2018-05-05T12:23:48.638Z,174.38
2018-05-05T12:24:48.545Z,168.75
2018-05-05T12:26:41.388Z,168.75
2018-05-05T12:27:41.289Z,168.75
2018-05-05T12:29:34.215Z,168.75
2018-05-05T12:30:34.015Z,168.75
2018-05-05T12:32:26.860Z,168.75
2018-05-05T12:33:26.762Z,168.75
2018-05-05T12:35:19.719Z,168.75
2018-05-05T12:36:19.514Z,168.75
2018-05-05T12:38:12.356Z,168.75
2018-05-05T12:39:12.273Z,168.75
2018-05-05T12:41:05.141Z,168.75
2018-05-05T12:42:05.010Z,168.75
2018-05-05T12:43:57.852Z,168.75
2018-05-05T12:44:57.765Z,168.75
2018-05-05T12:46:50.625Z,168.75
2018-05-05T12:47:50.518Z,168.75
2018-05-05T12:49:43.369Z,168.75
2018-05-05T12:50:43.266Z,168.75
2018-05-05T12:52:36.139Z,168.75
2018-05-05T12:53:36.012Z,168.75
2018-05-05T12:55:28.895Z,168.75
2018-05-05T12:56:28.790Z,168.75
2018-05-05T12:58:21.628Z,168.75
2018-05-05T12:59:21.516Z,168.75
2018-05-05T13:01:14.847Z,168.75
2018-05-05T13:02:14.687Z,168.75
2018-05-05T13:04:07.549Z,168.75
2018-05-05T13:05:07.494Z,168.75
2018-05-05T13:07:00.614Z,168.75
2018-05-05T13:08:00.517Z,168.75
2018-05-05T13:09:53.335Z,168.75
2018-05-05T13:10:53.242Z,168.75
2018-05-05T13:12:46.079Z,168.75
2018-05-05T13:13:45.998Z,168.75
2018-05-05T13:15:38.862Z,168.75
2018-05-05T13:16:38.749Z,168.75
2018-05-05T13:18:31.570Z,168.75
2018-05-05T13:19:31.477Z,168.75
2018-05-05T13:21:24.342Z,168.75
2018-05-05T13:22:24.232Z,168.75
2018-05-05T13:24:17.063Z,168.75
2018-05-05T13:25:16.982Z,168.75
2018-05-05T13:27:09.839Z,168.75
2018-05-05T13:28:09.758Z,168.75
2018-05-05T13:30:02.603Z,168.75
2018-05-05T13:31:02.469Z,168.75
2018-05-05T13:32:55.361Z,168.75
2018-05-05T13:33:55.245Z,168.75
2018-05-05T13:35:48.574Z,168.75
2018-05-05T13:36:48.481Z,174.38
2018-05-05T13:38:41.732Z,168.75
2018-05-05T13:39:42.106Z,168.75
2018-05-05T13:41:34.596Z,168.75
2018-05-05T13:42:33.993Z,168.75
2018-05-05T13:44:27.039Z,168.75
2018-05-05T13:45:26.728Z,168.75
2018-05-05T13:47:19.583Z,168.75
2018-05-05T13:48:19.485Z,168.75
2018-05-05T13:50:12.334Z,168.75
2018-05-05T13:51:12.226Z,168.75
2018-05-05T13:53:05.088Z,168.75
2018-05-05T13:54:04.980Z,168.75
2018-05-05T13:55:57.833Z,168.75
2018-05-05T13:56:57.745Z,168.75
2018-05-05T13:58:50.612Z,168.75
2018-05-05T13:59:50.495Z,168.75
2018-05-05T14:01:43.333Z,174.38
2018-05-05T14:02:43.251Z,174.38
2018-05-05T14:04:36.096Z,174.38
2018-05-05T14:05:35.982Z,174.38
2018-05-05T14:07:28.883Z,174.38
2018-05-05T14:08:28.741Z,174.38
2018-05-05T14:10:21.627Z,174.38
2018-05-05T14:11:21.482Z,174.38
2018-05-05T14:13:14.324Z,174.38
2018-05-05T14:14:14.247Z,174.38
2018-05-05T14:16:07.090Z,174.38
2018-05-05T14:17:06.981Z,174.38
2018-05-05T14:19:00.383Z,174.38
2018-05-05T14:20:00.244Z,174.38
2018-05-05T14:21:53.949Z,174.38
2018-05-05T14:22:53.846Z,174.38
2018-05-05T14:24:46.669Z,174.38
2018-05-05T14:25:46.571Z,174.38
2018-05-05T14:27:39.397Z,180.00
2018-05-05T14:28:39.319Z,180.00
2018-05-05T14:30:32.707Z,180.00
2018-05-05T14:31:32.564Z,180.00
2018-05-05T14:33:25.432Z,180.00
2018-05-05T14:34:25.357Z,180.00
2018-05-05T14:36:18.232Z,180.00
2018-05-05T14:37:18.110Z,180.00
2018-05-05T14:39:11.040Z,180.00
2018-05-05T14:40:11.197Z,180.00
2018-05-05T14:42:03.814Z,180.00
2018-05-05T14:43:03.592Z,180.00
2018-05-05T14:44:56.410Z,180.00
2018-05-05T14:45:56.330Z,180.00
2018-05-05T14:47:49.189Z,180.00
2018-05-05T14:48:49.068Z,185.63
2018-05-05T14:50:42.173Z,185.63
2018-05-05T14:51:42.704Z,185.63
2018-05-05T14:53:34.723Z,185.63
2018-05-05T14:54:34.587Z,185.63
2018-05-05T14:56:27.403Z,185.63
2018-05-05T14:57:27.327Z,185.63
2018-05-05T14:59:20.165Z,185.63
2018-05-05T15:00:20.068Z,185.63
2018-05-05T15:02:16.896Z,185.63
2018-05-05T15:03:13.252Z,185.63
2018-05-05T15:05:05.700Z,191.25
2018-05-05T15:06:05.579Z,191.25
2018-05-05T15:07:58.401Z,191.25
2018-05-05T15:08:58.334Z,191.25
2018-05-05T15:10:52.107Z,191.25
2018-05-05T15:11:51.064Z,191.25
2018-05-05T15:13:44.437Z,191.25
2018-05-05T15:14:44.403Z,191.25
2018-05-05T15:16:37.068Z,191.25
2018-05-05T15:17:36.985Z,191.25
2018-05-05T15:19:29.914Z,196.88
2018-05-05T15:20:29.838Z,196.88
2018-05-05T15:22:22.699Z,196.88
2018-05-05T15:23:22.597Z,196.88
2018-05-05T15:25:15.433Z,196.88
2018-05-05T15:26:15.318Z,202.50
2018-05-05T15:28:08.198Z,196.88
2018-05-05T15:29:08.077Z,196.88
2018-05-05T15:31:00.909Z,202.50
2018-05-05T15:32:00.830Z,202.50
2018-05-05T15:33:53.703Z,202.50
2018-05-05T15:34:53.579Z,202.50
2018-05-05T15:36:46.435Z,202.50
2018-05-05T15:37:46.849Z,202.50
2018-05-05T15:39:39.206Z,202.50
2018-05-05T15:40:39.128Z,202.50
2018-05-05T15:42:31.909Z,208.13
2018-05-05T15:43:31.830Z,208.13
2018-05-05T15:45:26.216Z,213.75
2018-05-05T15:46:26.124Z,213.75
2018-05-05T15:48:18.948Z,213.75
2018-05-05T15:49:18.894Z,219.38
2018-05-05T15:51:13.422Z,225.00
2018-05-05T15:52:13.492Z,230.63
2018-05-05T15:54:05.891Z,230.63
2018-05-05T15:55:05.795Z,236.25
2018-05-05T15:56:58.627Z,247.50
2018-05-05T15:57:58.543Z,247.50
2018-05-05T15:59:51.402Z,253.13
2018-05-05T16:00:51.300Z,258.75
2018-05-05T16:02:44.198Z,258.75
2018-05-05T16:03:44.346Z,264.38
2018-05-05T16:05:36.903Z,275.63
2018-05-05T16:06:36.826Z,281.25
2018-05-05T16:08:29.626Z,292.50
2018-05-05T16:09:29.543Z,298.13
2018-05-05T16:11:22.485Z,309.38
2018-05-05T16:12:22.304Z,320.63
2018-05-05T16:14:17.953Z,326.25
2018-05-05T16:15:16.270Z,331.88
2018-05-05T16:17:07.889Z,337.50
2018-05-05T16:18:07.797Z,337.50
2018-05-05T16:20:00.667Z,348.75
2018-05-05T16:21:00.541Z,348.75
2018-05-05T16:22:53.408Z,354.38
2018-05-05T16:23:53.311Z,354.38
2018-05-05T16:25:46.140Z,360.00
2018-05-05T16:26:46.057Z,360.00
2018-05-05T16:28:38.890Z,360.00
2018-05-05T16:29:38.794Z,360.00
2018-05-05T16:31:32.191Z,365.63
2018-05-05T16:32:31.545Z,365.63
2018-05-05T16:34:24.371Z,365.63
2018-05-05T16:35:24.294Z,365.63
2018-05-05T16:37:17.226Z,376.88
2018-05-05T16:38:17.052Z,371.25
2018-05-05T16:40:10.424Z,376.88
2018-05-05T16:41:10.319Z,376.88
2018-05-05T16:43:03.153Z,382.50
2018-05-05T16:44:03.064Z,388.13
2018-05-05T16:45:55.881Z,388.13
2018-05-05T16:46:55.819Z,393.75
2018-05-05T16:48:48.651Z,405.00
2018-05-05T16:49:48.557Z,410.63
2018-05-05T16:51:41.383Z,427.50
2018-05-05T16:52:41.308Z,455.63
2018-05-05T16:54:34.233Z,1130.63
2018-05-05T16:55:34.051Z,2565.00
2018-05-05T16:57:26.883Z,3757.50
2018-05-05T16:58:26.808Z,3825.00
2018-05-05T17:00:19.691Z,3847.50
2018-05-05T17:01:19.570Z,3886.88
2018-05-05T17:03:12.445Z,3903.75
2018-05-05T17:04:12.314Z,3836.25
2018-05-05T17:06:05.199Z,3813.75
2018-05-05T17:07:05.056Z,3690.00
2018-05-05T17:08:57.928Z,3611.25
2018-05-05T17:09:57.815Z,3673.13
2018-05-05T17:11:50.633Z,3481.88
2018-05-05T17:12:50.567Z,3476.25
2018-05-05T17:14:43.409Z,3678.75
2018-05-05T17:15:43.324Z,3673.13
2018-05-05T17:17:36.189Z,3498.75
2018-05-05T17:18:36.065Z,3465.00
2018-05-05T17:20:28.890Z,3510.00
2018-05-05T17:21:28.805Z,3510.00
2018-05-05T17:23:21.676Z,3498.75
2018-05-05T17:24:21.563Z,3436.88
2018-05-05T17:26:14.408Z,3369.38
2018-05-05T17:27:14.336Z,3307.50
2018-05-05T17:29:07.137Z,3279.38
2018-05-05T17:30:07.070Z,3206.25
2018-05-05T17:31:59.940Z,3065.63
2018-05-05T17:32:59.807Z,3082.50
2018-05-05T17:34:52.760Z,3195.00
2018-05-05T17:35:52.651Z,3031.88
2018-05-05T17:37:45.495Z,2874.38
2018-05-05T17:38:45.410Z,2913.75
2018-05-05T17:40:38.231Z,2981.25
2018-05-05T17:41:38.166Z,2868.75
2018-05-05T17:43:31.019Z,2761.88
2018-05-05T17:44:30.913Z,2671.88
2018-05-05T17:46:23.780Z,2587.50
2018-05-05T17:47:23.661Z,2503.13
2018-05-05T17:49:16.517Z,2525.63
2018-05-05T17:50:16.403Z,2435.63
2018-05-05T17:52:09.241Z,2221.88
2018-05-05T17:53:09.153Z,2176.88
2018-05-05T17:55:02.018Z,1963.13
2018-05-05T17:56:01.963Z,1316.25
2018-05-05T17:57:54.866Z,146.25
2018-05-05T17:58:54.766Z,123.75
2018-05-05T18:00:47.584Z,112.50
2018-05-05T18:01:47.506Z,106.88
2018-05-05T18:03:40.343Z,101.25
2018-05-05T18:04:40.259Z,101.25
2018-05-05T18:06:33.113Z,90.00
2018-05-05T18:07:33.010Z,90.00
2018-05-05T18:09:25.839Z,84.38
2018-05-05T18:10:25.752Z,84.38
2018-05-05T18:12:18.659Z,78.75
2018-05-05T18:13:18.492Z,73.13
2018-05-05T18:15:11.348Z,67.50